createdAt,value
2022-08-08T00:00:55.923Z,16.60
2022-08-08T00:04:30.709Z,16.50
2022-08-08T00:08:35.987Z,16.40
2022-08-08T00:12:23.873Z,16.30
2022-08-08T00:16:11.854Z,16.20
2022-08-08T00:20:06.605Z,16.10
2022-08-08T00:24:04.718Z,16.10
2022-08-08T00:27:52.713Z,16.00
2022-08-08T00:32:15.587Z,15.90
2022-08-08T00:36:14.956Z,15.80
2022-08-08T00:41:09.859Z,15.70
2022-08-08T00:44:47.516Z,15.70
2022-08-08T00:49:23.190Z,15.70
2022-08-08T00:53:57.046Z,15.60
2022-08-08T00:58:12.704Z,15.60
2022-08-08T01:03:59.767Z,15.60
2022-08-08T01:06:33.786Z,15.50
2022-08-08T01:10:34.525Z,15.50
2022-08-08T01:14:54.140Z,15.40
2022-08-08T01:19:02.713Z,15.30
2022-08-08T01:23:55.036Z,15.30
2022-08-08T01:27:43.535Z,15.20
2022-08-08T01:32:13.403Z,15.10
2022-08-08T01:36:00.965Z,15.00
2022-08-08T01:39:43.166Z,15.00
2022-08-08T01:43:50.835Z,14.90
2022-08-08T01:48:16.089Z,14.80
2022-08-08T01:53:28.818Z,14.70
2022-08-08T01:56:42.565Z,14.60
2022-08-08T02:01:01.063Z,14.50
2022-08-08T02:05:20.550Z,14.40
2022-08-08T02:10:01.231Z,14.40
2022-08-08T02:13:54.696Z,14.30
2022-08-08T02:17:59.458Z,14.20
2022-08-08T02:22:06.304Z,14.20
2022-08-08T02:26:12.005Z,14.10
2022-08-08T02:30:33.277Z,14.10
2022-08-08T02:34:34.469Z,14.00
2022-08-08T02:39:01.121Z,13.90
2022-08-08T02:44:34.703Z,13.90
2022-08-08T02:47:28.843Z,13.80
2022-08-08T02:51:30.164Z,13.80
2022-08-08T02:55:57.910Z,13.70
2022-08-08T03:00:31.215Z,13.60
2022-08-08T03:05:04.390Z,13.60
2022-08-08T03:08:30.676Z,13.50
2022-08-08T03:13:01.175Z,13.50
2022-08-08T03:17:09.510Z,13.40
2022-08-08T03:20:52.608Z,13.40
2022-08-08T03:24:35.150Z,13.30
2022-08-08T03:28:38.304Z,13.30
2022-08-08T03:32:41.469Z,13.30
2022-08-08T03:36:27.925Z,13.20
2022-08-08T03:40:29.417Z,13.10
2022-08-08T03:44:12.744Z,13.10
2022-08-08T03:48:08.267Z,13.00
2022-08-08T03:52:02.955Z,13.00
2022-08-08T03:55:56.695Z,13.00
2022-08-08T04:00:02.922Z,12.90
2022-08-08T04:03:57.836Z,12.90
2022-08-08T04:07:41.906Z,12.90
2022-08-08T04:11:25.541Z,12.90
2022-08-08T04:15:08.118Z,12.80
2022-08-08T04:18:53.046Z,12.80
2022-08-08T04:22:38.141Z,12.70
2022-08-08T04:26:20.477Z,12.70
2022-08-08T04:30:17.224Z,12.70
2022-08-08T04:34:00.705Z,12.70
2022-08-08T04:37:43.033Z,12.70
2022-08-08T04:41:26.735Z,12.60
2022-08-08T04:45:18.885Z,12.60
2022-08-08T04:49:03.121Z,12.60
2022-08-08T04:52:48.491Z,12.50
2022-08-08T04:56:30.788Z,12.50
2022-08-08T05:00:14.459Z,12.50
2022-08-08T05:04:11.007Z,12.40
2022-08-08T05:07:56.634Z,12.40
2022-08-08T05:11:40.726Z,12.40
2022-08-08T05:15:23.148Z,12.40
2022-08-08T05:19:05.192Z,12.40
2022-08-08T05:22:48.243Z,12.40
2022-08-08T05:26:31.058Z,12.40
2022-08-08T05:30:13.377Z,12.50
2022-08-08T05:33:55.323Z,12.50
2022-08-08T05:37:52.860Z,12.60
2022-08-08T05:41:54.849Z,12.70
2022-08-08T05:45:43.133Z,12.80
2022-08-08T05:49:38.288Z,12.90
2022-08-08T05:54:24.919Z,13.00
2022-08-08T05:58:04.387Z,13.20
2022-08-08T06:01:55.787Z,13.40
2022-08-08T06:05:58.796Z,13.50
2022-08-08T06:10:01.328Z,13.70
2022-08-08T06:13:47.569Z,13.90
2022-08-08T06:17:50.912Z,14.20
2022-08-08T06:21:51.240Z,14.40
2022-08-08T06:26:43.229Z,14.80
2022-08-08T06:30:11.761Z,15.10
2022-08-08T06:34:27.973Z,15.40
2022-08-08T06:38:14.802Z,15.70
2022-08-08T06:41:57.537Z,15.90
2022-08-08T06:45:40.723Z,16.10
2022-08-08T06:49:56.746Z,16.40
2022-08-08T06:53:38.987Z,16.70
2022-08-08T06:57:25.133Z,16.90
2022-08-08T07:02:17.389Z,17.20
2022-08-08T07:05:20.385Z,17.40
2022-08-08T07:09:20.780Z,17.60
2022-08-08T07:13:09.310Z,17.90
2022-08-08T07:16:58.483Z,18.40
2022-08-08T07:20:50.585Z,18.80
2022-08-08T07:24:33.433Z,19.30
2022-08-08T07:28:18.815Z,19.90
2022-08-08T07:32:03.341Z,20.50
2022-08-08T07:35:48.635Z,21.10
2022-08-08T07:39:56.047Z,21.40
2022-08-08T07:43:38.030Z,21.70
2022-08-08T07:47:38.291Z,21.80
2022-08-08T07:51:24.426Z,22.00
2022-08-08T07:55:28.984Z,22.20
2022-08-08T07:59:19.168Z,22.40
2022-08-08T08:03:09.859Z,22.50
2022-08-08T08:06:58.417Z,22.70
2022-08-08T08:10:42.618Z,22.90
2022-08-08T08:14:47.500Z,23.20
2022-08-08T08:18:55.674Z,23.40
2022-08-08T08:22:38.087Z,23.60
2022-08-08T08:26:27.736Z,23.80
2022-08-08T08:30:11.047Z,23.90
2022-08-08T08:33:53.457Z,24.00
2022-08-08T08:37:52.936Z,24.20
2022-08-08T08:41:39.102Z,24.30
2022-08-08T08:45:23.323Z,24.50
2022-08-08T08:49:06.303Z,24.60
2022-08-08T08:53:00.137Z,24.90
2022-08-08T08:56:47.863Z,25.40
2022-08-08T09:00:49.898Z,26.30
2022-08-08T09:04:38.743Z,26.80
2022-08-08T09:08:29.537Z,27.10
2022-08-08T09:12:12.141Z,27.00
2022-08-08T09:16:03.658Z,27.00
2022-08-08T09:22:01.317Z,26.90
2022-08-08T09:23:50.106Z,26.90
2022-08-08T09:27:55.653Z,27.00
2022-08-08T09:31:56.991Z,27.10
2022-08-08T09:35:49.253Z,27.60
2022-08-08T09:39:58.951Z,28.40
2022-08-08T09:44:06.179Z,29.10
2022-08-08T09:48:09.323Z,30.10
2022-08-08T09:52:06.334Z,31.20
2022-08-08T09:56:03.449Z,32.30
2022-08-08T10:00:28.693Z,33.20
2022-08-08T10:03:57.504Z,33.50
2022-08-08T10:07:59.972Z,33.70
2022-08-08T10:12:25.815Z,34.10
2022-08-08T10:16:01.119Z,34.80
2022-08-08T10:19:57.816Z,35.50
2022-08-08T10:23:58.459Z,36.00
2022-08-08T10:27:43.046Z,36.50
2022-08-08T10:31:54.718Z,36.90
2022-08-08T10:36:07.700Z,37.40
2022-08-08T10:39:53.815Z,38.10
2022-08-08T10:43:38.768Z,38.30
2022-08-08T10:47:22.357Z,38.80
2022-08-08T10:51:14.085Z,39.30
2022-08-08T10:55:11.987Z,39.80
2022-08-08T10:59:00.688Z,40.10
2022-08-08T11:02:42.705Z,40.60
2022-08-08T11:06:34.969Z,40.90
2022-08-08T11:10:28.790Z,41.30
2022-08-08T11:14:15.851Z,41.80
2022-08-08T11:18:02.110Z,42.40
2022-08-08T11:21:56.175Z,42.70
2022-08-08T11:25:52.169Z,43.00
2022-08-08T11:29:51.310Z,42.90
2022-08-08T11:33:52.598Z,42.80
2022-08-08T11:38:35.919Z,42.80
2022-08-08T11:41:47.858Z,43.10
2022-08-08T11:45:48.220Z,43.30
2022-08-08T11:49:34.995Z,43.60
2022-08-08T11:53:19.309Z,43.80
2022-08-08T11:57:27.254Z,43.80
2022-08-08T12:01:12.372Z,43.60
2022-08-08T12:05:12.239Z,43.40
2022-08-08T12:09:06.457Z,43.40
2022-08-08T12:12:51.770Z,43.40
2022-08-08T12:16:43.452Z,43.50
2022-08-08T12:20:39.634Z,43.30
2022-08-08T12:24:28.290Z,43.20
2022-08-08T12:28:16.244Z,43.30
2022-08-08T12:32:04.339Z,43.30
2022-08-08T12:35:52.515Z,43.20
2022-08-08T12:39:58.208Z,42.40
2022-08-08T12:43:47.732Z,42.00
2022-08-08T12:48:04.236Z,41.80
2022-08-08T12:51:49.834Z,41.90
2022-08-08T12:56:18.245Z,42.00
2022-08-08T13:00:05.717Z,41.90
2022-08-08T13:03:53.719Z,41.70
2022-08-08T13:08:02.245Z,41.80
2022-08-08T13:12:19.933Z,41.80
2022-08-08T13:15:56.230Z,41.90
2022-08-08T13:19:41.103Z,41.90
2022-08-08T13:23:41.285Z,41.80
2022-08-08T13:27:35.974Z,41.70
2022-08-08T13:31:19.126Z,41.50
2022-08-08T13:35:06.050Z,41.60
2022-08-08T13:39:07.067Z,41.80
2022-08-08T13:42:51.044Z,41.90
2022-08-08T13:46:32.983Z,42.00
2022-08-08T13:50:36.385Z,41.90
2022-08-08T13:54:29.304Z,41.80
2022-08-08T13:58:20.152Z,41.80
2022-08-08T14:02:07.364Z,41.90
2022-08-08T14:06:00.386Z,41.80
2022-08-08T14:09:58.886Z,41.80
2022-08-08T14:13:59.878Z,41.70
2022-08-08T14:17:59.180Z,41.40
2022-08-08T14:21:49.217Z,41.40
2022-08-08T14:25:55.801Z,41.20
2022-08-08T14:29:40.368Z,41.30
2022-08-08T14:33:36.291Z,41.40
2022-08-08T14:37:18.985Z,41.60
2022-08-08T14:41:53.805Z,41.70
2022-08-08T14:45:47.104Z,41.60
2022-08-08T14:49:37.742Z,41.50
2022-08-08T14:53:55.959Z,41.30
2022-08-08T14:58:06.595Z,41.10
2022-08-08T15:01:49.817Z,41.00
2022-08-08T15:05:42.948Z,40.90
2022-08-08T15:09:34.878Z,40.60
2022-08-08T15:13:17.814Z,40.30
2022-08-08T15:17:02.965Z,40.10
2022-08-08T15:20:44.994Z,40.00
2022-08-08T15:24:31.194Z,39.80
2022-08-08T15:28:33.624Z,39.70
2022-08-08T15:32:20.719Z,39.60
2022-08-08T15:36:17.797Z,39.30
2022-08-08T15:40:01.210Z,39.20
2022-08-08T15:43:43.279Z,39.00
2022-08-08T15:48:05.415Z,38.80
2022-08-08T15:51:45.279Z,38.80
2022-08-08T15:55:27.727Z,38.70
2022-08-08T15:59:10.155Z,38.60
2022-08-08T16:02:55.635Z,38.30
2022-08-08T16:06:47.296Z,37.50
2022-08-08T16:13:09.022Z,36.80
2022-08-08T16:14:33.752Z,36.20
2022-08-08T16:18:15.969Z,35.60
2022-08-08T16:22:01.747Z,35.00
2022-08-08T16:25:46.318Z,34.50
2022-08-08T16:29:37.779Z,33.90
2022-08-08T16:33:40.304Z,33.30
2022-08-08T16:37:22.653Z,32.90
2022-08-08T16:41:09.790Z,32.60
2022-08-08T16:45:02.373Z,32.50
2022-08-08T16:48:54.125Z,32.30
2022-08-08T16:55:07.106Z,32.20
2022-08-08T16:56:38.615Z,32.00
2022-08-08T17:00:48.715Z,31.70
2022-08-08T17:04:33.310Z,31.60
2022-08-08T17:08:15.266Z,31.50
2022-08-08T17:12:00.676Z,31.30
2022-08-08T17:15:51.801Z,31.20
2022-08-08T17:19:37.434Z,31.10
2022-08-08T17:23:55.191Z,31.00
2022-08-08T17:27:29.096Z,30.80
2022-08-08T17:31:45.160Z,30.60
2022-08-08T17:35:54.396Z,30.50
2022-08-08T17:40:03.245Z,30.40
2022-08-08T17:43:31.234Z,30.30
2022-08-08T17:47:40.237Z,30.10
2022-08-08T17:51:22.955Z,29.90
2022-08-08T17:56:03.855Z,29.80
2022-08-08T17:59:09.415Z,29.60
2022-08-08T18:02:52.585Z,29.40
2022-08-08T18:06:51.850Z,29.30
2022-08-08T18:10:35.074Z,29.10
2022-08-08T18:14:21.694Z,29.00
2022-08-08T18:18:09.545Z,28.90
2022-08-08T18:22:06.361Z,28.80
2022-08-08T18:26:08.283Z,28.60
2022-08-08T18:29:50.247Z,28.50
2022-08-08T18:34:10.682Z,28.30
2022-08-08T18:37:48.266Z,28.20
2022-08-08T18:41:51.048Z,28.00
2022-08-08T18:45:44.710Z,27.90
2022-08-08T18:49:32.457Z,27.70
2022-08-08T18:53:23.204Z,27.60
2022-08-08T18:57:08.924Z,27.40
2022-08-08T19:00:53.062Z,27.30
2022-08-08T19:04:36.333Z,27.10
2022-08-08T19:08:23.978Z,27.00
2022-08-08T19:12:12.779Z,26.80
2022-08-08T19:15:56.438Z,26.70
2022-08-08T19:19:43.969Z,26.60
2022-08-08T19:23:26.822Z,26.40
2022-08-08T19:27:10.727Z,26.20
2022-08-08T19:31:03.762Z,26.10
2022-08-08T19:34:49.501Z,25.90
2022-08-08T19:38:33.610Z,25.70
2022-08-08T19:42:15.725Z,25.50
2022-08-08T19:46:00.791Z,25.40
2022-08-08T19:50:00.083Z,25.20
2022-08-08T19:53:52.158Z,25.00
2022-08-08T19:57:38.044Z,24.80
2022-08-08T20:01:25.844Z,24.60
2022-08-08T20:06:16.335Z,24.50
2022-08-08T20:09:24.658Z,24.30
2022-08-08T20:14:12.683Z,24.10
2022-08-08T20:17:09.200Z,23.90
2022-08-08T20:20:53.700Z,23.80
2022-08-08T20:24:36.039Z,23.70
2022-08-08T20:28:24.322Z,23.50
2022-08-08T20:32:13.990Z,23.40
2022-08-08T20:36:07.707Z,23.30
2022-08-08T20:39:51.725Z,23.10
2022-08-08T20:43:48.430Z,23.00
2022-08-08T20:47:36.544Z,22.80
2022-08-08T20:51:21.240Z,22.70
2022-08-08T20:55:07.599Z,22.60
2022-08-08T20:58:59.022Z,22.40
2022-08-08T21:02:48.572Z,22.30
2022-08-08T21:06:52.461Z,22.20
2022-08-08T21:10:36.258Z,22.00
2022-08-08T21:14:18.163Z,21.80
2022-08-08T21:18:13.753Z,21.70
2022-08-08T21:21:57.121Z,21.60
2022-08-08T21:25:39.070Z,21.50
2022-08-08T21:29:21.555Z,21.30
2022-08-08T21:33:07.913Z,21.20
2022-08-08T21:36:54.387Z,21.10
2022-08-08T21:40:37.429Z,21.00
2022-08-08T21:44:20.322Z,20.90
2022-08-08T21:48:23.010Z,20.80
2022-08-08T21:54:30.823Z,20.70
2022-08-08T21:56:20.087Z,20.60
2022-08-08T22:00:14.434Z,20.50
2022-08-08T22:03:58.245Z,20.40
2022-08-08T22:07:41.535Z,20.30
2022-08-08T22:11:59.249Z,20.20
2022-08-08T22:15:27.734Z,20.10
2022-08-08T22:19:15.540Z,20.00
2022-08-08T22:22:58.495Z,19.90
2022-08-08T22:27:01.309Z,19.80
2022-08-08T22:30:53.235Z,19.70
2022-08-08T22:34:39.318Z,19.60
2022-08-08T22:38:23.100Z,19.50
2022-08-08T22:42:10.102Z,19.40
2022-08-08T22:45:52.863Z,19.30
2022-08-08T22:49:34.928Z,19.30
2022-08-08T22:54:31.343Z,19.20
2022-08-08T22:57:24.516Z,19.10
2022-08-08T23:02:00.496Z,19.00
2022-08-08T23:05:13.686Z,18.90
2022-08-08T23:09:00.254Z,18.80
2022-08-08T23:12:42.906Z,18.80
2022-08-08T23:16:39.188Z,18.70
2022-08-08T23:20:27.503Z,18.60
2022-08-08T23:24:09.776Z,18.60
2022-08-08T23:27:54.608Z,18.50
2022-08-08T23:31:38.740Z,18.50
2022-08-08T23:35:23.799Z,18.40
2022-08-08T23:39:07.286Z,18.30
2022-08-08T23:42:49.421Z,18.20
2022-08-08T23:49:01.099Z,18.20
2022-08-08T23:50:35.329Z,18.10
2022-08-08T23:54:41.759Z,18.00
2022-08-08T23:58:31.864Z,18.00
